Latest Weather Observations for Coonawarra

IDS60801

Issued at 8:21 pm CST Wednesday 19 September 2018 (issued every 10 minutes, with the page automatically refreshed every 10 minutes)

About weather observations | Map of weather stations | Latest weather observations for SA | Other Formats
Station Details ID: 026091 Name: COONAWARRA Lat: -37.29 Lon: 140.83 Height: 57.0 m
Data from the previous 72 hours. | See also: Recent months at Coonawarra
Date/Time
CST
Temp
°C
App
Temp
°C
Dew
Point
°C
Rel
Hum
%
Delta-T
°C
Wind Press
QNH
hPa
Press
MSL
hPa
Rain since
9am
mm
Dir  Spd
km/h
Gust
km/h
Spd
kts
Gust
kts
19/08:00pm 6.4 3.4 4.3 86 0.9 W 9 13 5 7 1018.8 1018.9 4.0
19/07:30pm 7.0 4.1 4.9 86 0.9 W 9 9 5 5 1018.6 1018.7 4.0
19/07:00pm 7.6 4.7 4.9 83 1.2 W 9 11 5 6 1018.2 1018.3 4.0
19/06:30pm 8.5 5.6 4.9 78 1.6 W 9 11 5 6 1017.8 1017.9 4.0
19/06:00pm 9.9 7.5 5.3 73 2.1 WSW 7 11 4 6 1017.4 1017.5 4.0
19/05:30pm 11.2 8.3 4.8 64 2.9 WSW 9 13 5 7 1017.0 1017.1 4.0
19/05:00pm 12.1 7.0 3.3 55 3.9 W 19 24 10 13 1016.8 1016.9 4.0
19/04:30pm 12.6 7.3 3.1 52 4.2 W 20 30 11 16 1016.5 1016.5 4.0
19/04:00pm 12.6 7.5 2.8 51 4.3 WSW 19 30 10 16 1016.3 1016.3 4.0
19/03:30pm 11.6 8.9 5.8 67 2.7 W 9 17 5 9 1016.3 1016.3 4.0
19/03:00pm 12.0 7.9 6.3 68 2.7 WSW 17 26 9 14 1016.3 1016.3 4.0
19/02:30pm 12.8 8.3 6.8 67 2.9 W 20 28 11 15 1016.2 1016.2 4.0
19/02:00pm 10.7 8.1 7.6 81 1.5 WNW 11 20 6 11 1016.2 1016.2 4.0
19/01:30pm 10.1 5.6 6.9 80 1.5 WNW 20 30 11 16 1016.2 1016.2 3.4
19/01:00pm 11.0 6.0 6.5 74 2.1 WNW 22 30 12 16 1016.1 1016.1 3.0
19/12:30pm 12.9 8.4 6.2 64 3.2 WNW 19 28 10 15 1015.9 1015.9 3.0
19/12:00pm 12.3 9.0 6.4 67 2.8 W 13 17 7 9 1016.0 1016.0 3.0
19/11:30am 8.8 3.7 6.2 84 1.2 WSW 22 43 12 23 1016.2 1016.2 2.8
19/11:00am 12.8 8.2 6.5 65 3.0 WNW 20 28 11 15 1015.7 1015.7 0.2
19/10:30am 12.5 9.1 5.7 63 3.2 WSW 13 20 7 11 1015.8 1015.8 0.2
19/10:00am 11.4 8.5 6.5 72 2.3 W 11 17 6 9 1015.8 1015.8 0.2
19/09:30am 9.7 6.4 6.5 80 1.5 WSW 13 19 7 10 1015.8 1015.8 0.2
19/09:00am 11.2 7.3 5.3 67 2.7 WNW 15 20 8 11 1015.7 1015.7 5.0
19/08:30am 9.8 5.6 5.7 75 1.9 WNW 17 24 9 13 1015.6 1015.6 5.0
19/08:00am 8.2 5.0 5.3 82 1.3 NW 11 15 6 8 1015.1 1015.1 5.0
19/07:30am 6.7 3.5 5.1 89 0.7 NNW 11 13 6 7 1014.7 1014.7 5.0
19/07:00am 4.2 1.1 3.5 95 0.3 N 9 11 5 6 1014.3 1014.3 5.0
19/06:30am 3.1 0.3 2.3 94 0.3 N 6 7 3 4 1013.9 1013.9 5.0
19/06:00am 2.9 -0.1 2.1 94 0.3 N 7 9 4 5 1013.6 1013.6 5.0
19/05:30am 3.6 0.3 2.6 93 0.4 NW 9 13 5 7 1013.3 1013.3 5.0
19/05:00am 4.3 1.5 3.3 93 0.4 W 7 11 4 6 1012.9 1012.9 5.0
19/04:30am 4.3 0.3 3.1 92 0.5 WNW 13 17 7 9 1012.5 1012.5 5.0
19/04:00am 4.2 0.2 3.0 92 0.5 WNW 13 15 7 8 1012.1 1012.1 4.8
19/03:30am 4.1 0.6 3.4 95 0.3 NW 11 13 6 7 1012.0 1012.0 4.8
19/03:00am 4.3 0.8 3.3 93 0.4 NW 11 13 6 7 1011.9 1011.9 4.8
19/02:30am 4.9 1.5 4.0 94 0.4 NW 11 15 6 8 1011.8 1011.8 4.8
19/02:00am 5.4 2.1 4.5 94 0.4 NW 11 13 6 7 1011.9 1011.9 4.8
19/01:30am 5.0 2.0 4.1 94 0.4 NW 9 13 5 7 1012.3 1012.3 4.6
19/01:00am 5.4 1.7 4.5 94 0.4 NNW 13 15 7 8 1012.1 1012.1 4.6
19/12:30am 6.1 2.9 5.2 94 0.4 NNW 11 13 6 7 1012.2 1012.2 4.6
19/12:00am 6.8 3.7 5.5 91 0.6 NW 11 15 6 8 1012.2 1012.2 4.4
 
Date/Time
CST
Temp
°C
App
Temp
°C
Dew
Point
°C
Rel
Hum
%
Delta-T
°C
Wind Press
QNH
hPa
Press
MSL
hPa
Rain since
9am
mm
Dir  Spd
km/h
Gust
km/h
Spd
kts
Gust
kts
18/11:30pm 6.7 3.2 5.3 91 0.6 WNW 13 17 7 9 1012.3 1012.3 4.0
18/11:00pm 6.9 2.9 5.1 88 0.8 WNW 15 20 8 11 1012.1 1012.1 3.8
18/10:30pm 6.5 3.3 5.1 91 0.6 NNW 11 13 6 7 1011.9 1011.9 2.6
18/10:00pm 7.2 4.6 5.9 91 0.6 NW 9 11 5 6 1011.8 1011.8 2.6
18/09:30pm 7.3 5.0 5.5 88 0.8 W 7 11 4 6 1012.2 1012.2 2.2
18/09:00pm 7.5 4.3 5.3 86 1.0 WNW 11 15 6 8 1011.7 1011.7 1.8
18/08:30pm 8.0 3.9 4.6 79 1.5 NW 15 30 8 16 1011.4 1011.4 1.8
18/08:00pm 7.4 3.8 5.2 86 1.0 NNW 13 15 7 8 1011.1 1011.1 1.8
18/07:30pm 8.6 4.2 4.5 75 1.8 WNW 17 22 9 12 1010.9 1010.9 1.8
18/07:00pm 7.9 4.5 6.1 88 0.8 NNW 13 20 7 11 1010.7 1010.7 1.8
18/06:30pm 8.6 5.3 6.2 85 1.1 NNW 13 17 7 9 1010.4 1010.4 1.8
18/06:00pm 9.9 6.2 6.3 78 1.7 NW 15 20 8 11 1010.1 1010.1 1.8
18/05:30pm 10.9 6.9 6.7 75 2.0 NW 17 22 9 12 1009.9 1009.9 1.8
18/05:00pm 11.5 6.1 6.2 70 2.5 W 24 33 13 18 1009.9 1009.9 1.8
18/04:30pm 11.8 7.4 7.3 74 2.2 WNW 20 28 11 15 1009.4 1009.4 1.8
18/04:00pm 10.3 4.6 6.5 77 1.8 WNW 26 43 14 23 1009.4 1009.4 1.6
18/03:30pm 12.2 7.1 7.5 73 2.3 NW 24 33 13 18 1009.0 1009.0 1.4
18/03:00pm 11.1 6.4 7.6 79 1.7 WNW 22 33 12 18 1009.3 1009.3 1.4
18/02:30pm 11.0 4.0 5.9 71 2.4 W 32 44 17 24 1009.4 1009.4 1.4
18/02:21pm 11.6 4.2 6.8 72 2.3 WNW 35 50 19 27 1009.3 1009.3 1.4
18/02:15pm 12.1 5.3 6.9 70 2.5 WNW 32 50 17 27 1009.2 1009.2 1.4
18/02:00pm 11.9 6.7 8.7 81 1.6 WNW 26 39 14 21 1009.1 1009.1 1.4
18/01:30pm 13.1 7.6 7.6 69 2.7 NW 26 33 14 18 1009.0 1009.0 0.8
18/01:00pm 12.1 7.5 8.0 76 2.0 WNW 22 33 12 18 1009.3 1009.3 0.8
18/12:31pm 11.4 5.9 9.2 86 1.1 WNW 28 46 15 25 1009.8 1009.8 0.8
18/12:30pm 11.7 6.2 9.3 85 1.2 WNW 28 41 15 22 1009.8 1009.8 0.8
18/12:00pm 11.9 7.3 8.3 78 1.8 NW 22 32 12 17 1009.4 1009.4 0.2
18/11:30am 13.7 8.2 5.7 58 3.8 WNW 24 33 13 18 1009.4 1009.4 0.0
18/11:00am 13.7 7.6 4.6 54 4.2 WNW 26 35 14 19 1009.4 1009.4 0.0
18/10:30am 14.2 7.6 4.0 50 4.7 WNW 28 41 15 22 1009.4 1009.4 0.0
18/10:00am 14.5 7.7 3.0 46 5.2 WNW 28 39 15 21 1009.7 1009.7 0.0
18/09:30am 14.1 7.4 3.5 49 4.8 WNW 28 35 15 19 1009.7 1009.7 0.0
18/09:00am 13.6 7.1 6.3 61 3.5 W 30 41 16 22 1009.6 1009.6 0.0
18/08:58am 13.5 6.8 5.7 59 3.7 WNW 30 41 16 22 1009.5 1009.5 0.0
18/08:30am 12.7 8.9 7.6 71 2.5 NW 17 22 9 12 1009.5 1009.5 0.0
18/08:00am 10.4 6.9 5.4 71 2.3 NNW 13 17 7 9 1009.3 1009.3 0.0
18/07:30am 9.4 5.1 3.2 65 2.7 NNW 15 19 8 10 1009.1 1009.1 0.0
18/07:00am 8.1 3.6 2.1 66 2.5 NNW 15 20 8 11 1008.9 1008.9 0.0
18/06:30am 8.5 2.6 -0.7 52 3.6 NNW 20 28 11 15 1008.4 1008.4 0.0
18/06:00am 8.0 2.0 -1.4 51 3.6 N 20 26 11 14 1007.8 1007.8 0.0
18/05:30am 7.6 1.7 -1.0 54 3.3 N 20 26 11 14 1007.7 1007.7 0.0
18/05:00am 8.6 2.8 -1.6 48 3.9 N 19 26 10 14 1007.5 1007.5 0.0
18/04:30am 7.9 2.9 -1.2 52 3.5 N 15 20 8 11 1007.3 1007.3 0.0
18/04:00am 8.9 3.1 -1.5 48 4.0 N 19 22 10 12 1007.3 1007.3 0.0
18/03:30am 10.7 4.5 -3.0 38 5.2 N 20 30 11 16 1007.0 1007.0 0.0
18/03:00am 10.0 4.1 -1.9 43 4.6 N 19 24 10 13 1007.1 1007.1 0.0
18/02:30am 9.8 4.0 -1.5 45 4.4 N 19 26 10 14 1007.5 1007.5 0.0
18/02:00am 10.1 3.4 -1.4 44 4.5 NNE 24 30 13 16 1007.4 1007.4 0.0
18/01:30am 10.6 3.9 -1.3 43 4.7 N 24 33 13 18 1008.2 1008.2 0.0
18/01:00am 11.0 4.3 -1.0 43 4.8 N 24 32 13 17 1008.6 1008.6 0.0
18/12:30am 11.4 5.1 -0.8 43 4.9 NNE 22 32 12 17 1008.9 1008.9 0.0
18/12:00am 11.5 5.6 -0.6 43 4.9 NNE 20 28 11 15 1009.2 1009.2 0.0
 
Date/Time
CST
Temp
°C
App
Temp
°C
Dew
Point
°C
Rel
Hum
%
Delta-T
°C
Wind Press
QNH
hPa
Press
MSL
hPa
Rain since
9am
mm
Dir  Spd
km/h
Gust
km/h
Spd
kts
Gust
kts
17/11:30pm 10.2 5.3 1.9 56 3.5 NNE 17 20 9 11 1009.7 1009.7 0.0
17/11:00pm 10.4 5.2 2.2 57 3.5 NNE 19 20 10 11 1010.2 1010.2 0.0
17/10:30pm 10.2 5.3 2.2 57 3.4 NNE 17 20 9 11 1010.6 1010.6 0.0
17/10:00pm 9.6 5.2 2.6 61 3.0 NNE 15 17 8 9 1011.4 1011.4 0.0
17/09:30pm 8.4 4.2 3.8 73 2.0 NE 15 17 8 9 1011.8 1011.8 0.0
17/09:00pm 8.9 5.1 4.1 72 2.1 NE 13 17 7 9 1012.1 1012.1 0.0
17/08:30pm 9.0 5.6 4.2 72 2.1 N 11 13 6 7 1012.2 1012.2 0.0
17/08:00pm 9.6 6.7 4.7 71 2.2 NNW 9 11 5 6 1012.3 1012.3 0.0
17/07:30pm 10.1 7.3 5.0 70 2.3 NNW 9 11 5 6 1012.1 1012.1 0.0
17/07:00pm 11.1 8.3 5.2 67 2.7 NNW 9 9 5 5 1011.8 1011.8 0.0
17/06:30pm 13.2 9.1 4.2 54 4.1 NNW 15 20 8 11 1011.9 1011.9 0.0
17/06:00pm 13.8 10.0 3.7 50 4.6 N 13 17 7 9 1011.7 1011.7 0.0
17/05:30pm 15.4 11.1 3.4 44 5.5 N 15 20 8 11 1011.9 1011.9 0.0
17/05:00pm 16.4 11.3 2.8 40 6.2 N 19 24 10 13 1012.1 1012.1 0.0
17/04:30pm 17.4 11.0 1.2 33 7.2 NNW 24 35 13 19 1012.5 1012.5 0.0
17/04:00pm 17.7 11.4 1.4 33 7.3 NNW 24 33 13 18 1012.7 1012.7 0.0
17/03:30pm 17.7 10.5 1.0 32 7.4 NNW 28 44 15 24 1013.3 1013.3 0.0
17/03:00pm 18.1 11.0 1.4 32 7.5 NNW 28 41 15 22 1013.7 1013.7 0.0
17/02:30pm 17.8 9.9 1.2 32 7.4 NNW 32 50 17 27 1014.2 1014.2 0.0
17/02:26pm 17.8 9.9 1.2 32 7.4 NNW 32 50 17 27 1014.2 1014.2 0.0
17/02:00pm 17.6 9.7 1.2 33 7.3 NNW 32 44 17 24 1014.7 1014.7 0.0
17/01:30pm 17.1 8.7 1.3 34 7.0 NNW 35 48 19 26 1015.3 1015.3 0.0
17/01:05pm 16.9 8.5 1.6 35 6.8 NNW 35 54 19 29 1015.7 1015.7 0.0
17/01:00pm 16.8 8.9 2.1 37 6.6 NNW 33 46 18 25 1015.8 1015.8 0.0
17/12:43pm 16.9 8.7 2.9 39 6.4 NNW 35 54 19 29 1016.2 1016.2 0.0
17/12:30pm 16.6 8.7 2.4 38 6.4 NNW 33 50 18 27 1016.4 1016.4 0.0
17/12:00pm 15.9 7.5 3.5 43 5.7 NNW 37 46 20 25 1017.2 1017.3 0.0
17/11:30am 15.5 7.5 4.0 46 5.3 NNW 35 48 19 26 1017.7 1017.8 0.0
17/11:00am 14.8 7.4 3.9 48 5.0 N 32 46 17 25 1018.2 1018.3 0.0
17/10:30am 14.2 7.2 4.2 51 4.6 N 30 43 16 23 1018.7 1018.8 0.0
17/10:00am 13.2 5.8 3.9 53 4.2 NNW 32 43 17 23 1019.2 1019.3 0.0
17/09:30am 12.6 6.1 4.7 58 3.6 N 28 35 15 19 1019.6 1019.7 0.0
17/09:00am 11.5 5.6 4.1 60 3.3 N 24 33 13 18 1019.9 1020.0 0.8
17/08:30am 11.1 6.1 4.4 63 3.0 N 20 30 11 16 1020.0 1020.1 0.8
17/08:00am 9.5 4.5 4.5 71 2.2 N 20 28 11 15 1020.0 1020.1 0.8
17/07:30am 8.3 3.5 4.4 76 1.7 N 19 24 10 13 1020.0 1020.1 0.8
17/07:00am 6.9 2.8 4.1 82 1.2 N 15 19 8 10 1020.1 1020.2 0.8
17/06:30am 6.3 1.7 3.7 83 1.1 N 17 24 9 13 1019.9 1020.0 0.8
17/06:00am 6.6 1.7 4.0 83 1.1 N 19 30 10 16 1019.6 1019.7 0.8
17/05:30am 6.0 1.8 3.9 86 0.9 NNE 15 20 8 11 1019.8 1019.9 0.8
17/05:00am 6.1 2.4 4.2 88 0.8 N 13 15 7 8 1020.1 1020.2 0.8
17/04:30am 7.1 3.5 5.1 87 0.9 N 13 17 7 9 1020.1 1020.2 0.8
17/04:00am 7.7 4.2 5.5 86 1.0 N 13 17 7 9 1019.9 1020.0 0.8
17/03:30am 8.0 4.6 6.0 87 0.9 N 13 20 7 11 1019.7 1019.8 0.8
17/03:00am 8.1 4.4 6.4 89 0.8 N 15 20 8 11 1019.9 1020.0 0.6
17/02:30am 8.0 5.1 6.5 90 0.7 N 11 15 6 8 1020.1 1020.2 0.6
17/02:00am 8.1 4.5 6.6 90 0.7 N 15 19 8 10 1020.6 1020.7 0.6
17/01:30am 8.0 5.1 6.5 90 0.7 NNW 11 15 6 8 1020.9 1021.0 0.6
17/01:00am 8.0 5.1 6.5 90 0.7 NNW 11 13 6 7 1021.5 1021.6 0.6
17/12:30am 8.1 5.2 6.4 89 0.8 N 11 15 6 8 1021.7 1021.8 0.6
17/12:00am 7.8 5.2 6.3 90 0.7 N 9 11 5 6 1021.9 1022.0 0.6
 
Date/Time
CST
Temp
°C
App
Temp
°C
Dew
Point
°C
Rel
Hum
%
Delta-T
°C
Wind Press
QNH
hPa
Press
MSL
hPa
Rain since
9am
mm
Dir  Spd
km/h
Gust
km/h
Spd
kts
Gust
kts
16/11:30pm 8.0 5.0 6.2 88 0.8 NNW 11 15 6 8 1022.1 1022.2 0.6
16/11:00pm 7.7 4.7 6.2 90 0.7 N 11 15 6 8 1022.2 1022.3 0.6
16/10:30pm 6.6 3.5 5.5 93 0.5 NNE 11 13 6 7 1022.4 1022.5 0.6
16/10:00pm 6.0 2.4 4.8 92 0.5 NNE 13 13 7 7 1022.8 1022.9 0.6
16/09:30pm 6.6 3.2 5.7 94 0.4 N 13 15 7 8 1023.1 1023.2 0.6
16/09:00pm 7.3 4.3 6.2 93 0.5 N 11 13 6 7 1023.2 1023.3 0.6
16/08:30pm 7.9 4.3 6.8 93 0.5 N 15 20 8 11 1023.2 1023.3 0.6

Other Formats:

Comma delimited format used in spreadsheet applications
http://www.bom.gov.au/fwo/IDS60801/IDS60801.94817.axf

JavaScript Object Notation format (JSON) in row-major order
http://www.bom.gov.au/fwo/IDS60801/IDS60801.94817.json